createdAt,value
2019-01-19T02:12:47.710Z,74.60
2019-01-19T02:42:49.397Z,72.20
2019-01-19T02:45:40.659Z,72.00
2019-01-19T02:48:30.145Z,72.60
2019-01-19T02:51:29.372Z,72.70
2019-01-19T02:54:10.986Z,71.90
2019-01-19T02:56:56.118Z,74.30
2019-01-19T03:02:48.148Z,72.40
2019-01-19T03:08:45.867Z,71.10
2019-01-19T03:11:33.307Z,69.30
2019-01-19T03:14:19.096Z,71.00
2019-01-19T03:17:03.802Z,72.30
2019-01-19T03:19:49.702Z,72.60
2019-01-19T03:22:37.292Z,74.00
2019-01-19T03:25:24.236Z,70.90
2019-01-19T03:28:16.949Z,70.70
2019-01-19T03:33:58.138Z,67.80
2019-01-19T03:37:04.139Z,67.10
2019-01-19T03:39:51.838Z,70.00
2019-01-19T03:42:38.491Z,70.70
2019-01-19T03:45:29.067Z,70.70
2019-01-19T03:48:08.473Z,71.90
2019-01-19T03:50:54.079Z,68.60
2019-01-19T03:53:42.361Z,68.70
2019-01-19T03:57:02.825Z,69.60
2019-01-19T03:59:55.614Z,69.20
2019-01-19T04:02:48.671Z,71.30
2019-01-19T04:05:45.019Z,70.60
2019-01-19T04:08:35.578Z,72.30
2019-01-19T04:11:26.184Z,73.30
2019-01-19T04:16:21.572Z,72.60
2019-01-19T04:19:07.859Z,71.10
2019-01-19T04:21:57.622Z,69.70
2019-01-19T04:24:43.974Z,70.60
2019-01-19T04:27:26.594Z,70.60
2019-01-19T04:30:06.664Z,68.60
2019-01-19T04:32:45.587Z,68.60
2019-01-19T04:35:30.980Z,67.90
2019-01-19T04:38:09.227Z,67.90
2019-01-19T04:40:53.460Z,67.80
2019-01-19T04:43:32.277Z,68.00
2019-01-19T04:46:13.615Z,68.00
2019-01-19T04:49:06.523Z,69.30
2019-01-19T04:54:49.190Z,68.70
2019-01-19T05:00:24.592Z,67.30
2019-01-19T05:03:04.937Z,64.50
2019-01-19T05:05:46.709Z,64.20
2019-01-19T05:08:25.896Z,65.60
2019-01-19T05:11:07.977Z,65.10
2019-01-19T05:16:53.102Z,66.90
2019-01-19T05:19:35.531Z,66.00
2019-01-19T05:25:24.931Z,63.80
2019-01-19T05:34:10.103Z,64.50
2019-01-19T05:36:52.599Z,65.20
2019-01-19T05:39:35.394Z,66.90
2019-01-19T05:42:22.816Z,65.70
2019-01-19T05:44:59.470Z,64.40
2019-01-19T05:47:38.439Z,63.70
2019-01-19T05:50:16.085Z,65.00
2019-01-19T05:52:51.736Z,64.70
2019-01-19T05:55:35.399Z,63.90
2019-01-19T05:58:25.112Z,63.60
2019-01-19T06:01:12.904Z,64.30
2019-01-19T06:03:54.309Z,64.30
2019-01-19T06:12:29.616Z,64.90
2019-01-19T06:15:13.495Z,65.30
2019-01-19T06:17:53.520Z,66.90
2019-01-19T06:20:40.785Z,66.30
2019-01-19T06:23:18.298Z,65.20
2019-01-19T06:25:55.620Z,63.30
2019-01-19T06:28:43.350Z,63.10
2019-01-19T06:31:22.248Z,63.80
2019-01-19T06:34:16.458Z,64.30
2019-01-19T06:40:51.928Z,65.10
2019-01-19T06:43:32.991Z,65.10
2019-01-19T06:46:08.403Z,63.10
2019-01-19T06:48:48.899Z,63.40
2019-01-19T06:51:31.319Z,64.80
2019-01-19T06:54:07.907Z,64.70
2019-01-19T06:59:46.984Z,65.60
2019-01-19T07:02:21.464Z,62.90
2019-01-19T07:04:56.453Z,60.20
2019-01-19T07:07:32.289Z,61.80
2019-01-19T07:13:09.918Z,62.10
2019-01-19T07:15:46.050Z,63.00
2019-01-19T07:18:21.376Z,63.30
2019-01-19T07:20:56.776Z,61.40
2019-01-19T07:26:29.167Z,60.90
2019-01-19T07:29:04.773Z,63.40
2019-01-19T07:31:38.738Z,64.20
2019-01-19T07:34:26.330Z,65.60
2019-01-19T07:37:02.094Z,63.30
2019-01-19T07:39:44.750Z,63.70
2019-01-19T07:42:20.796Z,63.30
2019-01-19T07:44:54.938Z,65.70
2019-01-19T07:47:35.912Z,65.80
2019-01-19T07:50:12.782Z,64.50
2019-01-19T07:52:48.016Z,61.40
2019-01-19T07:55:25.151Z,61.40
2019-01-19T07:58:00.730Z,62.40
2019-01-19T08:00:43.667Z,61.80
2019-01-19T08:03:18.464Z,63.50
2019-01-19T08:05:53.176Z,61.10
2019-01-19T08:08:35.739Z,63.50
2019-01-19T08:11:12.074Z,62.90
2019-01-19T08:13:53.630Z,63.30
2019-01-19T08:16:23.051Z,64.50
2019-01-19T08:18:52.557Z,65.30
2019-01-19T08:21:21.833Z,65.70
2019-01-19T08:23:51.130Z,65.50
2019-01-19T08:26:20.459Z,66.10
2019-01-19T08:28:49.714Z,67.00
2019-01-19T08:31:19.015Z,66.20
2019-01-19T08:36:50.596Z,63.10
2019-01-19T08:39:32.624Z,64.90
2019-01-19T08:42:07.827Z,64.50
2019-01-19T08:44:41.021Z,63.20
2019-01-19T08:47:16.369Z,64.80
2019-01-19T08:49:50.972Z,65.20
2019-01-19T08:52:26.091Z,63.80
2019-01-19T08:55:07.958Z,64.70
2019-01-19T08:57:48.958Z,64.80
2019-01-19T09:03:29.688Z,67.40
2019-01-19T09:06:06.453Z,67.30
2019-01-19T09:08:43.464Z,67.80
2019-01-19T09:11:18.311Z,68.80
2019-01-19T09:13:57.645Z,68.50
2019-01-19T09:16:40.563Z,68.50
2019-01-19T09:19:15.883Z,69.70
2019-01-19T09:21:50.780Z,70.90
2019-01-19T09:24:36.120Z,72.00
2019-01-19T09:27:09.380Z,71.30
2019-01-19T09:30:01.231Z,70.70
2019-01-19T09:32:31.680Z,68.90
2019-01-19T09:38:10.333Z,66.30
2019-01-19T09:40:45.904Z,65.30
2019-01-19T09:43:20.583Z,62.00
2019-01-19T09:49:02.680Z,58.90
2019-01-19T09:51:33.457Z,55.60
2019-01-19T09:54:04.708Z,56.30
2019-01-19T09:56:36.922Z,51.00
2019-01-19T09:59:07.387Z,51.70
2019-01-19T10:01:37.327Z,50.00
2019-01-19T10:04:08.934Z,48.30
2019-01-19T10:06:38.541Z,49.60
2019-01-19T10:09:09.562Z,46.20
2019-01-19T10:11:40.603Z,45.40
2019-01-19T10:14:10.070Z,46.90
2019-01-19T10:16:39.659Z,46.20
2019-01-19T10:19:09.010Z,44.00
2019-01-19T10:21:38.381Z,43.10
2019-01-19T10:24:08.663Z,42.20
2019-01-19T10:26:38.084Z,41.90
2019-01-19T10:29:08.127Z,45.60
2019-01-19T10:31:37.962Z,45.30
2019-01-19T10:34:07.274Z,41.20
2019-01-19T10:36:37.715Z,45.00
2019-01-19T10:39:10.417Z,42.40
2019-01-19T10:41:47.342Z,43.40
2019-01-19T10:44:22.381Z,43.90
2019-01-19T10:46:58.127Z,42.80
2019-01-19T10:49:33.887Z,45.10
2019-01-19T10:52:09.649Z,44.10
2019-01-19T10:54:44.958Z,44.40
2019-01-19T10:57:23.174Z,39.10
2019-01-19T10:59:53.960Z,40.30
2019-01-19T11:02:29.396Z,42.60
2019-01-19T11:05:10.113Z,44.30
2019-01-19T11:07:47.765Z,42.30
2019-01-19T11:10:25.561Z,39.70
2019-01-19T11:13:00.941Z,37.90
2019-01-19T11:15:39.902Z,38.10
2019-01-19T11:18:15.619Z,39.80
2019-01-19T11:20:50.766Z,40.00
2019-01-19T11:23:25.985Z,39.90
2019-01-19T11:26:03.286Z,40.10
2019-01-19T11:32:27.974Z,38.60
2019-01-19T11:38:00.949Z,40.80
2019-01-19T11:40:33.814Z,42.90
2019-01-19T11:43:03.328Z,40.40
2019-01-19T11:45:39.730Z,41.20
2019-01-19T11:48:14.281Z,39.80
2019-01-19T11:50:49.963Z,37.80
2019-01-19T11:53:28.020Z,38.40
2019-01-19T11:56:11.861Z,38.40
2019-01-19T11:58:45.294Z,38.20
2019-01-19T12:01:20.182Z,36.70
2019-01-19T12:03:55.490Z,36.30
2019-01-19T12:06:31.503Z,37.70
2019-01-19T12:09:10.703Z,39.00
2019-01-19T12:11:46.541Z,37.80
2019-01-19T12:14:22.594Z,36.50
2019-01-19T12:16:59.365Z,35.70
2019-01-19T12:19:32.575Z,38.10
2019-01-19T12:22:08.302Z,36.20
2019-01-19T12:24:45.855Z,35.30
2019-01-19T12:27:17.347Z,35.20
2019-01-19T12:30:09.109Z,33.90
2019-01-19T12:35:38.158Z,34.10
2019-01-19T12:38:17.087Z,33.20
2019-01-19T12:41:06.004Z,32.80
2019-01-19T12:43:35.326Z,35.70
2019-01-19T12:49:11.306Z,38.60
2019-01-19T12:51:40.839Z,38.60
2019-01-19T12:54:11.665Z,36.10
2019-01-19T12:56:47.143Z,35.50
2019-01-19T12:59:27.258Z,33.50
2019-01-19T13:02:01.237Z,31.20
2019-01-19T13:07:35.506Z,32.30
2019-01-19T13:10:17.436Z,32.70
2019-01-19T13:12:54.140Z,31.20
2019-01-19T13:15:40.411Z,31.90
2019-01-19T13:18:23.277Z,31.30
2019-01-19T13:24:09.054Z,32.00
2019-01-19T13:27:17.235Z,31.90
2019-01-19T13:30:03.986Z,31.90
2019-01-19T13:34:50.331Z,32.70
2019-01-19T13:37:36.861Z,31.70
2019-01-19T13:43:17.388Z,33.10
2019-01-19T13:46:04.344Z,32.00
2019-01-19T13:48:48.447Z,31.80
2019-01-19T13:51:33.970Z,32.70
2019-01-19T13:54:18.772Z,35.20
2019-01-19T13:57:04.599Z,32.00
2019-01-19T13:59:54.203Z,31.70
2019-01-19T14:02:35.467Z,33.50
2019-01-19T14:08:16.286Z,32.20
2019-01-19T14:10:57.906Z,31.00
2019-01-19T14:13:39.754Z,31.60
2019-01-19T14:16:19.891Z,31.50
2019-01-19T14:19:24.700Z,34.50
2019-01-19T14:22:04.920Z,33.60
2019-01-19T14:24:54.833Z,32.60
2019-01-19T14:27:41.644Z,33.60
2019-01-19T14:33:26.496Z,32.50
2019-01-19T14:38:13.746Z,35.60
2019-01-19T14:41:01.186Z,35.60
2019-01-19T14:43:48.729Z,33.50
2019-01-19T14:46:34.314Z,32.90
2019-01-19T14:49:19.699Z,31.00
2019-01-19T14:52:06.225Z,30.80
2019-01-19T14:55:01.407Z,32.70
2019-01-19T14:57:45.430Z,31.60
2019-01-19T15:00:56.209Z,32.00
2019-01-19T15:04:19.930Z,32.70
2019-01-19T15:07:04.538Z,32.90
2019-01-19T15:09:42.681Z,32.80
2019-01-19T15:12:30.174Z,32.80
2019-01-19T15:15:12.605Z,33.50
2019-01-19T15:20:52.213Z,33.30
2019-01-19T15:26:36.683Z,32.10
2019-01-19T15:29:49.209Z,33.00
2019-01-19T15:34:45.990Z,31.80
2019-01-19T15:37:25.496Z,33.80
2019-01-19T15:40:10.374Z,35.00
2019-01-19T15:45:47.083Z,37.50
2019-01-19T15:48:35.340Z,36.90
2019-01-19T15:51:17.651Z,38.40
2019-01-19T15:53:59.556Z,38.40
2019-01-19T15:56:46.764Z,39.00
2019-01-19T16:04:31.335Z,40.60
2019-01-19T16:07:16.143Z,41.30
2019-01-19T16:10:04.109Z,43.60
2019-01-19T16:12:48.540Z,43.60
2019-01-19T16:15:44.543Z,44.50
2019-01-19T16:18:27.308Z,45.90
2019-01-19T16:23:15.358Z,47.70
2019-01-19T16:25:57.078Z,49.40
2019-01-19T16:28:38.828Z,52.10
2019-01-19T16:32:56.722Z,52.40
2019-01-19T16:36:11.111Z,52.60
2019-01-19T16:38:52.762Z,51.80
2019-01-19T16:45:37.086Z,49.20
2019-01-19T16:48:18.990Z,49.50
2019-01-19T16:51:00.537Z,52.90
2019-01-19T16:59:40.249Z,53.10
2019-01-19T17:02:26.170Z,54.30
2019-01-19T17:05:19.348Z,53.50
2019-01-19T17:08:10.445Z,53.00
2019-01-19T17:11:00.981Z,56.80
2019-01-19T17:14:46.173Z,56.30
2019-01-19T17:17:34.058Z,58.50
2019-01-19T17:20:39.809Z,58.40
2019-01-19T17:23:21.952Z,59.90
2019-01-19T17:28:05.136Z,60.70
2019-01-19T17:31:04.547Z,60.50
2019-01-19T17:33:46.413Z,61.80
2019-01-19T17:36:26.685Z,61.20
2019-01-19T17:40:10.728Z,61.60
2019-01-19T17:43:02.978Z,60.90
2019-01-19T17:48:42.731Z,63.60
2019-01-19T17:51:26.127Z,64.70
2019-01-19T17:54:07.703Z,65.30
2019-01-19T17:56:51.281Z,64.20
2019-01-19T17:59:40.417Z,64.30
2019-01-19T18:02:26.455Z,65.10
2019-01-19T18:05:38.787Z,66.00
2019-01-19T18:10:56.602Z,60.10
2019-01-19T18:13:41.970Z,61.50
2019-01-19T18:16:23.196Z,62.20
2019-01-19T18:19:04.297Z,62.80
2019-01-19T18:21:55.962Z,62.40
2019-01-19T18:24:40.098Z,63.90
2019-01-19T18:29:24.996Z,64.40
2019-01-19T18:32:10.487Z,64.20
2019-01-19T18:36:58.515Z,65.10
2019-01-19T18:39:39.864Z,66.00
2019-01-19T18:42:25.963Z,67.20
2019-01-19T18:45:21.820Z,62.00
2019-01-19T18:51:10.972Z,64.30
2019-01-19T18:54:08.166Z,64.70
2019-01-19T18:57:10.141Z,65.50
2019-01-19T18:59:49.266Z,66.70
2019-01-19T19:02:50.814Z,64.20
2019-01-19T19:05:37.007Z,64.40
2019-01-19T19:08:19.626Z,63.80
2019-01-19T19:11:15.085Z,63.50
2019-01-19T19:14:00.731Z,65.20
2019-01-19T19:16:50.607Z,65.40
2019-01-19T19:20:35.643Z,64.50
2019-01-19T19:23:14.675Z,65.00
2019-01-19T19:25:56.444Z,65.70
2019-01-19T19:28:37.712Z,65.90
2019-01-19T19:33:24.650Z,64.20
2019-01-19T19:36:12.150Z,63.30
2019-01-19T19:38:52.769Z,62.40
2019-01-19T19:41:34.121Z,64.20
2019-01-19T19:44:15.971Z,63.30
2019-01-19T19:46:58.831Z,62.20
2019-01-19T19:49:37.992Z,60.80
2019-01-19T19:52:15.490Z,59.90
2019-01-19T19:54:51.423Z,59.10
2019-01-19T19:57:26.146Z,60.40
2019-01-19T19:59:59.918Z,61.20
2019-01-19T20:02:37.083Z,60.10
2019-01-19T20:05:13.369Z,60.10
2019-01-19T20:07:48.917Z,60.90
2019-01-19T20:10:26.697Z,59.20
2019-01-19T20:13:06.616Z,61.90
2019-01-19T20:15:47.553Z,61.20
2019-01-19T20:18:22.747Z,60.10
2019-01-19T20:20:58.966Z,62.10
2019-01-19T20:23:35.624Z,64.20
2019-01-19T20:26:10.665Z,60.70
2019-01-19T20:28:46.385Z,59.80
2019-01-19T20:31:21.938Z,58.80
2019-01-19T20:33:56.762Z,59.10
2019-01-19T20:36:35.155Z,57.90
2019-01-19T20:39:11.529Z,60.00
2019-01-19T20:41:49.721Z,58.10
2019-01-19T20:44:26.971Z,59.80
2019-01-19T20:47:11.340Z,60.70
2019-01-19T20:49:46.886Z,62.10
2019-01-19T20:52:29.549Z,62.40
2019-01-19T20:55:06.559Z,62.70
2019-01-19T20:57:45.074Z,64.10
2019-01-19T21:00:21.916Z,62.80
2019-01-19T21:02:58.870Z,60.40
2019-01-19T21:05:37.400Z,58.60
2019-01-19T21:08:15.055Z,58.30
2019-01-19T21:13:53.752Z,59.00
2019-01-19T21:16:29.741Z,60.00
2019-01-19T21:19:05.186Z,58.70
2019-01-19T21:21:43.240Z,59.70
2019-01-19T21:24:22.696Z,58.60
2019-01-19T21:26:58.810Z,58.10
2019-01-19T21:29:34.910Z,58.80
2019-01-19T21:32:14.031Z,59.70
2019-01-19T21:34:49.093Z,58.10
2019-01-19T21:37:29.944Z,59.30
2019-01-19T21:40:09.531Z,59.30
2019-01-19T21:42:57.587Z,59.50
2019-01-19T21:45:34.954Z,58.90
2019-01-19T21:48:10.770Z,55.20
2019-01-19T21:50:48.826Z,54.50
2019-01-19T21:53:25.260Z,54.70
2019-01-19T21:56:01.183Z,56.50
2019-01-19T21:58:37.237Z,54.60
2019-01-19T22:01:15.177Z,56.40
2019-01-19T22:03:53.762Z,57.50
2019-01-19T22:06:30.385Z,57.50
2019-01-19T22:09:08.473Z,57.20
2019-01-19T22:11:46.872Z,58.40
2019-01-19T22:14:22.610Z,58.30
2019-01-19T22:17:03.583Z,58.90
2019-01-19T22:19:42.232Z,56.10
2019-01-19T22:22:20.081Z,56.60
2019-01-19T22:24:57.591Z,56.90
2019-01-19T22:27:35.608Z,56.00
2019-01-19T22:30:24.741Z,55.60
2019-01-19T22:33:01.087Z,56.20
2019-01-19T22:35:37.202Z,56.70
2019-01-19T22:38:15.346Z,55.50
2019-01-19T22:40:53.974Z,55.20
2019-01-19T22:43:31.410Z,55.70
2019-01-19T22:46:08.889Z,55.20
2019-01-19T22:48:59.187Z,56.80
2019-01-19T22:51:36.062Z,56.60
2019-01-19T22:54:24.644Z,55.80
2019-01-19T22:57:18.318Z,56.10
2019-01-19T23:00:04.105Z,56.30
2019-01-19T23:02:44.141Z,54.70
2019-01-19T23:05:21.078Z,56.70
2019-01-19T23:07:55.885Z,54.70
2019-01-19T23:10:34.362Z,55.90
2019-01-19T23:13:14.375Z,57.50
2019-01-19T23:15:56.651Z,58.40
2019-01-19T23:18:34.958Z,58.70
2019-01-19T23:21:26.693Z,58.10
2019-01-19T23:24:05.759Z,56.00
2019-01-19T23:26:46.684Z,54.10
2019-01-19T23:29:25.041Z,55.30
2019-01-19T23:32:03.195Z,55.90
2019-01-19T23:34:49.754Z,56.30
2019-01-19T23:37:33.017Z,56.10
2019-01-19T23:40:22.987Z,57.50
2019-01-19T23:43:04.985Z,57.40
2019-01-19T23:45:45.817Z,56.90
2019-01-19T23:48:27.676Z,56.20
2019-01-19T23:51:08.309Z,55.80
2019-01-19T23:53:49.343Z,56.50
2019-01-19T23:56:28.979Z,53.60
2019-01-19T23:59:06.216Z,51.30
